sensor_id;sensor_type;location;lat;lon;timestamp;P1;durP1;ratioP1;P2;durP2;ratioP2
15295;SDS011;7749;49.964;7.890;2023-01-29T00:00:00;6.20;;;5.50;;
15295;SDS011;7749;49.964;7.890;2023-01-29T00:02:36;7.43;;;6.70;;
15295;SDS011;7749;49.964;7.890;2023-01-29T00:05:04;7.23;;;6.13;;
15295;SDS011;7749;49.964;7.890;2023-01-29T00:07:52;7.77;;;6.30;;
15295;SDS011;7749;49.964;7.890;2023-01-29T00:10:23;6.90;;;6.20;;
15295;SDS011;7749;49.964;7.890;2023-01-29T00:12:51;6.60;;;6.00;;
15295;SDS011;7749;49.964;7.890;2023-01-29T00:15:19;7.30;;;6.17;;
15295;SDS011;7749;49.964;7.890;2023-01-29T00:17:47;6.70;;;6.00;;
15295;SDS011;7749;49.964;7.890;2023-01-29T00:20:14;7.43;;;5.80;;
15295;SDS011;7749;49.964;7.890;2023-01-29T00:22:43;8.27;;;6.23;;
15295;SDS011;7749;49.964;7.890;2023-01-29T00:25:13;7.10;;;6.20;;
15295;SDS011;7749;49.964;7.890;2023-01-29T00:27:43;6.73;;;6.00;;
15295;SDS011;7749;49.964;7.890;2023-01-29T00:30:11;6.53;;;6.00;;
15295;SDS011;7749;49.964;7.890;2023-01-29T00:32:39;6.50;;;5.97;;
15295;SDS011;7749;49.964;7.890;2023-01-29T00:35:07;6.77;;;6.17;;
15295;SDS011;7749;49.964;7.890;2023-01-29T00:37:35;6.63;;;6.03;;
15295;SDS011;7749;49.964;7.890;2023-01-29T00:40:03;8.43;;;7.07;;
15295;SDS011;7749;49.964;7.890;2023-01-29T00:42:31;6.63;;;5.83;;
15295;SDS011;7749;49.964;7.890;2023-01-29T00:45:17;5.87;;;5.30;;
15295;SDS011;7749;49.964;7.890;2023-01-29T00:47:45;7.57;;;6.40;;
15295;SDS011;7749;49.964;7.890;2023-01-29T00:50:12;6.67;;;5.50;;
15295;SDS011;7749;49.964;7.890;2023-01-29T00:52:43;6.73;;;6.13;;
15295;SDS011;7749;49.964;7.890;2023-01-29T00:55:11;6.53;;;5.93;;
15295;SDS011;7749;49.964;7.890;2023-01-29T00:57:39;6.50;;;5.90;;
15295;SDS011;7749;49.964;7.890;2023-01-29T01:00:08;6.10;;;5.60;;
15295;SDS011;7749;49.964;7.890;2023-01-29T01:02:38;7.10;;;5.87;;
15295;SDS011;7749;49.964;7.890;2023-01-29T01:05:25;6.73;;;6.07;;
15295;SDS011;7749;49.964;7.890;2023-01-29T01:07:53;6.67;;;6.17;;
15295;SDS011;7749;49.964;7.890;2023-01-29T01:10:24;6.33;;;5.83;;
15295;SDS011;7749;49.964;7.890;2023-01-29T01:12:55;7.27;;;6.53;;
15295;SDS011;7749;49.964;7.890;2023-01-29T01:15:28;6.10;;;5.57;;
15295;SDS011;7749;49.964;7.890;2023-01-29T01:18:05;11.60;;;6.30;;
15295;SDS011;7749;49.964;7.890;2023-01-29T01:20:34;6.80;;;6.10;;
15295;SDS011;7749;49.964;7.890;2023-01-29T01:23:02;6.37;;;5.83;;
15295;SDS011;7749;49.964;7.890;2023-01-29T01:25:30;8.10;;;6.80;;
15295;SDS011;7749;49.964;7.890;2023-01-29T01:27:58;7.47;;;6.77;;
15295;SDS011;7749;49.964;7.890;2023-01-29T01:30:29;6.77;;;6.07;;
15295;SDS011;7749;49.964;7.890;2023-01-29T01:32:57;6.47;;;5.97;;
15295;SDS011;7749;49.964;7.890;2023-01-29T01:35:24;7.37;;;6.60;;
15295;SDS011;7749;49.964;7.890;2023-01-29T01:37:52;7.03;;;6.40;;
15295;SDS011;7749;49.964;7.890;2023-01-29T01:40:20;7.17;;;6.57;;
15295;SDS011;7749;49.964;7.890;2023-01-29T01:42:50;7.03;;;6.37;;
15295;SDS011;7749;49.964;7.890;2023-01-29T01:50:51;5.93;;;5.43;;
15295;SDS011;7749;49.964;7.890;2023-01-29T01:53:25;9.13;;;6.73;;
15295;SDS011;7749;49.964;7.890;2023-01-29T01:56:01;7.53;;;6.63;;
15295;SDS011;7749;49.964;7.890;2023-01-29T01:58:33;7.20;;;6.50;;
15295;SDS011;7749;49.964;7.890;2023-01-29T02:01:07;6.60;;;6.10;;
15295;SDS011;7749;49.964;7.890;2023-01-29T02:03:49;7.27;;;6.63;;
15295;SDS011;7749;49.964;7.890;2023-01-29T02:06:40;7.25;;;6.65;;
15295;SDS011;7749;49.964;7.890;2023-01-29T02:09:30;7.03;;;6.43;;
15295;SDS011;7749;49.964;7.890;2023-01-29T02:12:02;6.97;;;6.40;;
15295;SDS011;7749;49.964;7.890;2023-01-29T02:14:33;7.90;;;7.23;;
15295;SDS011;7749;49.964;7.890;2023-01-29T02:17:05;7.80;;;7.00;;
15295;SDS011;7749;49.964;7.890;2023-01-29T02:19:40;7.13;;;6.53;;
15295;SDS011;7749;49.964;7.890;2023-01-29T02:47:07;7.10;;;6.60;;
15295;SDS011;7749;49.964;7.890;2023-01-29T02:52:39;8.00;;;7.20;;
15295;SDS011;7749;49.964;7.890;2023-01-29T02:55:18;8.23;;;7.43;;
15295;SDS011;7749;49.964;7.890;2023-01-29T02:57:53;7.40;;;6.77;;
15295;SDS011;7749;49.964;7.890;2023-01-29T03:00:27;6.73;;;6.13;;
15295;SDS011;7749;49.964;7.890;2023-01-29T03:03:11;7.40;;;6.70;;
15295;SDS011;7749;49.964;7.890;2023-01-29T03:05:57;7.50;;;6.80;;
15295;SDS011;7749;49.964;7.890;2023-01-29T03:08:37;7.80;;;7.20;;
15295;SDS011;7749;49.964;7.890;2023-01-29T03:11:12;8.40;;;7.50;;
15295;SDS011;7749;49.964;7.890;2023-01-29T03:13:55;7.57;;;6.97;;
15295;SDS011;7749;49.964;7.890;2023-01-29T03:16:34;9.00;;;7.00;;
15295;SDS011;7749;49.964;7.890;2023-01-29T03:19:17;6.87;;;6.27;;
15295;SDS011;7749;49.964;7.890;2023-01-29T03:21:58;7.50;;;6.90;;
15295;SDS011;7749;49.964;7.890;2023-01-29T03:30:27;7.73;;;7.10;;
15295;SDS011;7749;49.964;7.890;2023-01-29T03:33:16;8.13;;;7.47;;
15295;SDS011;7749;49.964;7.890;2023-01-29T03:35:50;7.70;;;7.00;;
15295;SDS011;7749;49.964;7.890;2023-01-29T03:38:26;7.23;;;6.57;;
15295;SDS011;7749;49.964;7.890;2023-01-29T03:57:57;8.40;;;7.60;;
15295;SDS011;7749;49.964;7.890;2023-01-29T04:01:02;8.43;;;7.67;;
15295;SDS011;7749;49.964;7.890;2023-01-29T04:03:52;8.60;;;7.80;;
15295;SDS011;7749;49.964;7.890;2023-01-29T04:06:30;8.80;;;8.00;;
15295;SDS011;7749;49.964;7.890;2023-01-29T04:11:44;8.60;;;7.80;;
15295;SDS011;7749;49.964;7.890;2023-01-29T04:14:16;8.73;;;7.93;;
15295;SDS011;7749;49.964;7.890;2023-01-29T04:16:46;8.53;;;7.87;;
15295;SDS011;7749;49.964;7.890;2023-01-29T04:19:17;8.73;;;7.93;;
15295;SDS011;7749;49.964;7.890;2023-01-29T04:21:45;9.07;;;8.17;;
15295;SDS011;7749;49.964;7.890;2023-01-29T04:24:15;7.60;;;7.00;;
15295;SDS011;7749;49.964;7.890;2023-01-29T04:34:49;8.50;;;7.60;;
15295;SDS011;7749;49.964;7.890;2023-01-29T04:40:24;8.10;;;7.40;;
15295;SDS011;7749;49.964;7.890;2023-01-29T04:44:03;8.37;;;7.77;;
15295;SDS011;7749;49.964;7.890;2023-01-29T04:46:28;11.20;;;10.20;;
15295;SDS011;7749;49.964;7.890;2023-01-29T05:00:45;9.70;;;8.90;;
15295;SDS011;7749;49.964;7.890;2023-01-29T05:03:18;12.40;;;11.30;;
15295;SDS011;7749;49.964;7.890;2023-01-29T05:05:50;12.40;;;11.20;;
15295;SDS011;7749;49.964;7.890;2023-01-29T05:08:20;11.63;;;10.63;;
15295;SDS011;7749;49.964;7.890;2023-01-29T05:10:50;9.80;;;8.97;;
15295;SDS011;7749;49.964;7.890;2023-01-29T05:13:20;8.93;;;8.13;;
15295;SDS011;7749;49.964;7.890;2023-01-29T05:15:51;9.13;;;8.43;;
15295;SDS011;7749;49.964;7.890;2023-01-29T05:18:21;9.67;;;8.87;;
15295;SDS011;7749;49.964;7.890;2023-01-29T05:20:48;10.10;;;9.20;;
15295;SDS011;7749;49.964;7.890;2023-01-29T05:23:17;9.33;;;8.63;;
15295;SDS011;7749;49.964;7.890;2023-01-29T05:25:46;8.53;;;7.93;;
15295;SDS011;7749;49.964;7.890;2023-01-29T05:28:15;9.27;;;8.47;;
15295;SDS011;7749;49.964;7.890;2023-01-29T05:33:16;9.00;;;8.30;;
15295;SDS011;7749;49.964;7.890;2023-01-29T05:35:48;9.03;;;8.33;;
15295;SDS011;7749;49.964;7.890;2023-01-29T05:38:16;8.90;;;8.20;;
15295;SDS011;7749;49.964;7.890;2023-01-29T05:40:45;9.27;;;8.57;;
15295;SDS011;7749;49.964;7.890;2023-01-29T05:45:52;8.70;;;8.00;;
15295;SDS011;7749;49.964;7.890;2023-01-29T05:48:21;10.10;;;9.20;;
15295;SDS011;7749;49.964;7.890;2023-01-29T05:50:49;8.53;;;7.83;;
15295;SDS011;7749;49.964;7.890;2023-01-29T05:53:17;8.30;;;7.70;;
15295;SDS011;7749;49.964;7.890;2023-01-29T05:55:45;9.30;;;8.50;;
15295;SDS011;7749;49.964;7.890;2023-01-29T05:58:14;12.53;;;11.33;;
15295;SDS011;7749;49.964;7.890;2023-01-29T06:00:41;11.57;;;10.57;;
15295;SDS011;7749;49.964;7.890;2023-01-29T06:03:09;11.07;;;10.13;;
15295;SDS011;7749;49.964;7.890;2023-01-29T06:05:37;9.00;;;8.30;;
15295;SDS011;7749;49.964;7.890;2023-01-29T06:08:05;11.83;;;10.73;;
15295;SDS011;7749;49.964;7.890;2023-01-29T06:10:34;11.47;;;10.47;;
15295;SDS011;7749;49.964;7.890;2023-01-29T06:13:02;9.43;;;8.53;;
15295;SDS011;7749;49.964;7.890;2023-01-29T06:15:29;10.80;;;9.90;;
15295;SDS011;7749;49.964;7.890;2023-01-29T06:17:57;11.37;;;10.37;;
15295;SDS011;7749;49.964;7.890;2023-01-29T06:20:25;9.07;;;8.37;;
15295;SDS011;7749;49.964;7.890;2023-01-29T06:22:52;9.27;;;8.57;;
15295;SDS011;7749;49.964;7.890;2023-01-29T06:25:20;8.80;;;8.10;;
15295;SDS011;7749;49.964;7.890;2023-01-29T06:27:51;9.13;;;8.43;;
15295;SDS011;7749;49.964;7.890;2023-01-29T06:30:18;10.00;;;9.10;;
15295;SDS011;7749;49.964;7.890;2023-01-29T06:32:46;9.13;;;8.43;;
15295;SDS011;7749;49.964;7.890;2023-01-29T06:35:13;9.73;;;8.93;;
15295;SDS011;7749;49.964;7.890;2023-01-29T06:37:41;9.47;;;8.77;;
15295;SDS011;7749;49.964;7.890;2023-01-29T06:40:09;9.87;;;9.07;;
15295;SDS011;7749;49.964;7.890;2023-01-29T06:42:39;9.93;;;9.13;;
15295;SDS011;7749;49.964;7.890;2023-01-29T06:45:07;12.67;;;11.67;;
15295;SDS011;7749;49.964;7.890;2023-01-29T06:47:35;10.97;;;10.07;;
15295;SDS011;7749;49.964;7.890;2023-01-29T06:50:03;11.00;;;10.00;;
15295;SDS011;7749;49.964;7.890;2023-01-29T06:52:30;11.40;;;10.50;;
15295;SDS011;7749;49.964;7.890;2023-01-29T06:54:58;10.43;;;9.57;;
15295;SDS011;7749;49.964;7.890;2023-01-29T06:57:27;10.60;;;9.80;;
15295;SDS011;7749;49.964;7.890;2023-01-29T06:59:56;10.13;;;9.27;;
15295;SDS011;7749;49.964;7.890;2023-01-29T07:02:23;10.33;;;9.50;;
15295;SDS011;7749;49.964;7.890;2023-01-29T07:04:51;9.17;;;8.47;;
15295;SDS011;7749;49.964;7.890;2023-01-29T07:07:18;9.57;;;8.83;;
15295;SDS011;7749;49.964;7.890;2023-01-29T07:09:46;10.30;;;9.40;;
15295;SDS011;7749;49.964;7.890;2023-01-29T07:12:14;10.40;;;9.60;;
15295;SDS011;7749;49.964;7.890;2023-01-29T07:14:41;10.90;;;10.00;;
15295;SDS011;7749;49.964;7.890;2023-01-29T07:17:09;11.40;;;10.50;;
15295;SDS011;7749;49.964;7.890;2023-01-29T07:19:36;12.13;;;11.10;;
15295;SDS011;7749;49.964;7.890;2023-01-29T07:22:04;12.80;;;11.60;;
15295;SDS011;7749;49.964;7.890;2023-01-29T07:24:31;31.43;;;28.23;;
15295;SDS011;7749;49.964;7.890;2023-01-29T07:26:59;15.80;;;14.37;;
15295;SDS011;7749;49.964;7.890;2023-01-29T07:29:27;27.30;;;24.40;;
15295;SDS011;7749;49.964;7.890;2023-01-29T07:31:54;26.30;;;23.57;;
15295;SDS011;7749;49.964;7.890;2023-01-29T07:34:22;40.40;;;35.97;;
15295;SDS011;7749;49.964;7.890;2023-01-29T07:36:52;35.33;;;30.23;;
15295;SDS011;7749;49.964;7.890;2023-01-29T07:39:21;20.97;;;18.87;;
15295;SDS011;7749;49.964;7.890;2023-01-29T07:41:49;12.50;;;11.40;;
15295;SDS011;7749;49.964;7.890;2023-01-29T07:44:17;11.53;;;10.53;;
15295;SDS011;7749;49.964;7.890;2023-01-29T07:46:44;12.60;;;11.27;;
15295;SDS011;7749;49.964;7.890;2023-01-29T07:49:12;12.20;;;11.10;;
15295;SDS011;7749;49.964;7.890;2023-01-29T07:51:40;11.60;;;10.57;;
15295;SDS011;7749;49.964;7.890;2023-01-29T07:54:07;12.07;;;11.07;;
15295;SDS011;7749;49.964;7.890;2023-01-29T07:56:35;10.53;;;9.50;;
15295;SDS011;7749;49.964;7.890;2023-01-29T07:59:02;11.60;;;10.60;;
15295;SDS011;7749;49.964;7.890;2023-01-29T08:01:30;10.87;;;9.97;;
15295;SDS011;7749;49.964;7.890;2023-01-29T08:03:58;11.10;;;10.10;;
15295;SDS011;7749;49.964;7.890;2023-01-29T08:06:25;11.13;;;10.13;;
15295;SDS011;7749;49.964;7.890;2023-01-29T08:08:53;11.90;;;10.67;;
15295;SDS011;7749;49.964;7.890;2023-01-29T08:11:21;10.50;;;9.60;;
15295;SDS011;7749;49.964;7.890;2023-01-29T08:13:49;11.20;;;10.20;;
15295;SDS011;7749;49.964;7.890;2023-01-29T08:16:21;11.17;;;10.27;;
15295;SDS011;7749;49.964;7.890;2023-01-29T08:18:48;10.77;;;9.87;;
15295;SDS011;7749;49.964;7.890;2023-01-29T08:21:16;10.93;;;10.03;;
15295;SDS011;7749;49.964;7.890;2023-01-29T08:23:44;10.03;;;9.13;;
15295;SDS011;7749;49.964;7.890;2023-01-29T08:26:11;10.80;;;9.90;;
15295;SDS011;7749;49.964;7.890;2023-01-29T08:28:39;10.53;;;9.50;;
15295;SDS011;7749;49.964;7.890;2023-01-29T08:31:16;9.67;;;8.87;;
15295;SDS011;7749;49.964;7.890;2023-01-29T08:33:46;12.37;;;9.97;;
15295;SDS011;7749;49.964;7.890;2023-01-29T08:36:15;9.97;;;9.07;;
15295;SDS011;7749;49.964;7.890;2023-01-29T08:38:42;9.40;;;8.23;;
15295;SDS011;7749;49.964;7.890;2023-01-29T08:41:10;9.70;;;8.83;;
15295;SDS011;7749;49.964;7.890;2023-01-29T08:43:37;9.73;;;8.73;;
15295;SDS011;7749;49.964;7.890;2023-01-29T08:46:06;8.03;;;7.33;;
15295;SDS011;7749;49.964;7.890;2023-01-29T08:48:34;8.43;;;7.63;;
15295;SDS011;7749;49.964;7.890;2023-01-29T08:51:02;8.13;;;7.33;;
15295;SDS011;7749;49.964;7.890;2023-01-29T08:53:31;9.03;;;8.23;;
15295;SDS011;7749;49.964;7.890;2023-01-29T08:55:59;8.77;;;7.87;;
15295;SDS011;7749;49.964;7.890;2023-01-29T08:58:26;8.67;;;7.87;;
15295;SDS011;7749;49.964;7.890;2023-01-29T09:00:54;8.13;;;7.30;;
15295;SDS011;7749;49.964;7.890;2023-01-29T09:03:22;8.27;;;7.50;;
15295;SDS011;7749;49.964;7.890;2023-01-29T09:05:49;9.63;;;7.87;;
15295;SDS011;7749;49.964;7.890;2023-01-29T09:08:17;7.57;;;6.87;;
15295;SDS011;7749;49.964;7.890;2023-01-29T09:10:45;9.73;;;6.90;;
15295;SDS011;7749;49.964;7.890;2023-01-29T09:13:14;12.43;;;7.93;;
15295;SDS011;7749;49.964;7.890;2023-01-29T09:15:42;8.57;;;7.67;;
15295;SDS011;7749;49.964;7.890;2023-01-29T09:18:10;7.80;;;7.07;;
15295;SDS011;7749;49.964;7.890;2023-01-29T09:20:37;9.33;;;7.50;;
15295;SDS011;7749;49.964;7.890;2023-01-29T09:23:06;8.13;;;6.87;;
15295;SDS011;7749;49.964;7.890;2023-01-29T09:25:35;7.03;;;6.27;;
15295;SDS011;7749;49.964;7.890;2023-01-29T09:28:03;7.97;;;7.17;;
15295;SDS011;7749;49.964;7.890;2023-01-29T09:30:32;7.97;;;7.17;;
15295;SDS011;7749;49.964;7.890;2023-01-29T09:33:04;7.87;;;7.17;;
15295;SDS011;7749;49.964;7.890;2023-01-29T09:35:32;8.53;;;7.73;;
15295;SDS011;7749;49.964;7.890;2023-01-29T09:38:00;8.37;;;7.47;;
15295;SDS011;7749;49.964;7.890;2023-01-29T09:43:19;9.03;;;8.13;;
15295;SDS011;7749;49.964;7.890;2023-01-29T09:45:54;10.13;;;8.20;;
15295;SDS011;7749;49.964;7.890;2023-01-29T09:48:28;7.90;;;7.10;;
15295;SDS011;7749;49.964;7.890;2023-01-29T09:51:01;7.63;;;6.77;;
15295;SDS011;7749;49.964;7.890;2023-01-29T09:53:44;7.30;;;6.60;;
15295;SDS011;7749;49.964;7.890;2023-01-29T09:56:20;9.17;;;8.27;;
15295;SDS011;7749;49.964;7.890;2023-01-29T09:58:57;6.90;;;6.20;;
15295;SDS011;7749;49.964;7.890;2023-01-29T10:07:14;7.53;;;6.83;;
15295;SDS011;7749;49.964;7.890;2023-01-29T10:10:00;18.47;;;7.90;;
15295;SDS011;7749;49.964;7.890;2023-01-29T10:18:09;9.23;;;7.43;;
15295;SDS011;7749;49.964;7.890;2023-01-29T10:24:06;8.83;;;7.93;;
15295;SDS011;7749;49.964;7.890;2023-01-29T10:26:25;8.33;;;7.53;;
15295;SDS011;7749;49.964;7.890;2023-01-29T10:28:54;9.20;;;8.30;;
15295;SDS011;7749;49.964;7.890;2023-01-29T10:31:31;9.67;;;8.63;;
15295;SDS011;7749;49.964;7.890;2023-01-29T10:36:49;9.40;;;8.60;;
15295;SDS011;7749;49.964;7.890;2023-01-29T10:55:23;8.93;;;8.03;;
15295;SDS011;7749;49.964;7.890;2023-01-29T11:01:16;7.07;;;6.37;;
15295;SDS011;7749;49.964;7.890;2023-01-29T11:03:44;7.63;;;7.03;;
15295;SDS011;7749;49.964;7.890;2023-01-29T11:11:20;7.50;;;6.80;;
15295;SDS011;7749;49.964;7.890;2023-01-29T11:13:57;8.90;;;7.27;;
15295;SDS011;7749;49.964;7.890;2023-01-29T11:16:43;8.70;;;7.47;;
15295;SDS011;7749;49.964;7.890;2023-01-29T11:19:13;8.07;;;7.37;;
15295;SDS011;7749;49.964;7.890;2023-01-29T11:21:54;7.97;;;7.27;;
15295;SDS011;7749;49.964;7.890;2023-01-29T11:24:24;8.67;;;7.57;;
15295;SDS011;7749;49.964;7.890;2023-01-29T11:26:56;7.83;;;7.07;;
15295;SDS011;7749;49.964;7.890;2023-01-29T11:29:44;7.60;;;6.90;;
15295;SDS011;7749;49.964;7.890;2023-01-29T11:37:41;7.77;;;6.90;;
15295;SDS011;7749;49.964;7.890;2023-01-29T11:46:06;6.93;;;6.27;;
15295;SDS011;7749;49.964;7.890;2023-01-29T11:48:47;8.43;;;6.17;;
15295;SDS011;7749;49.964;7.890;2023-01-29T11:51:32;7.30;;;6.60;;
15295;SDS011;7749;49.964;7.890;2023-01-29T11:54:01;7.27;;;6.47;;
15295;SDS011;7749;49.964;7.890;2023-01-29T11:56:32;7.40;;;6.67;;
15295;SDS011;7749;49.964;7.890;2023-01-29T11:59:24;7.40;;;6.80;;
15295;SDS011;7749;49.964;7.890;2023-01-29T12:02:02;7.07;;;6.47;;
15295;SDS011;7749;49.964;7.890;2023-01-29T12:04:54;6.40;;;5.90;;
15295;SDS011;7749;49.964;7.890;2023-01-29T12:07:26;7.77;;;6.50;;
15295;SDS011;7749;49.964;7.890;2023-01-29T12:09:58;7.20;;;6.50;;
15295;SDS011;7749;49.964;7.890;2023-01-29T12:12:30;13.50;;;6.83;;
15295;SDS011;7749;49.964;7.890;2023-01-29T12:15:02;6.93;;;6.23;;
15295;SDS011;7749;49.964;7.890;2023-01-29T12:17:32;7.53;;;6.37;;
15295;SDS011;7749;49.964;7.890;2023-01-29T12:20:05;8.50;;;6.30;;
15295;SDS011;7749;49.964;7.890;2023-01-29T12:22:43;6.13;;;5.63;;
15295;SDS011;7749;49.964;7.890;2023-01-29T12:25:23;11.03;;;5.80;;
15295;SDS011;7749;49.964;7.890;2023-01-29T12:28:14;7.87;;;5.60;;
15295;SDS011;7749;49.964;7.890;2023-01-29T12:31:14;5.87;;;5.33;;
15295;SDS011;7749;49.964;7.890;2023-01-29T12:33:54;6.23;;;5.63;;
15295;SDS011;7749;49.964;7.890;2023-01-29T12:36:37;8.30;;;7.43;;
15295;SDS011;7749;49.964;7.890;2023-01-29T12:39:35;38.60;;;34.40;;
15295;SDS011;7749;49.964;7.890;2023-01-29T12:42:12;10.80;;;7.90;;
15295;SDS011;7749;49.964;7.890;2023-01-29T12:44:47;9.65;;;8.25;;
15295;SDS011;7749;49.964;7.890;2023-01-29T12:47:25;9.23;;;8.27;;
15295;SDS011;7749;49.964;7.890;2023-01-29T12:50:01;6.47;;;5.88;;
15295;SDS011;7749;49.964;7.890;2023-01-29T12:52:46;6.05;;;5.45;;
15295;SDS011;7749;49.964;7.890;2023-01-29T12:55:21;9.83;;;7.83;;
15295;SDS011;7749;49.964;7.890;2023-01-29T12:58:01;8.00;;;7.20;;
15295;SDS011;7749;49.964;7.890;2023-01-29T13:00:37;8.23;;;7.30;;
15295;SDS011;7749;49.964;7.890;2023-01-29T13:05:59;8.87;;;7.57;;
15295;SDS011;7749;49.964;7.890;2023-01-29T13:08:36;12.77;;;8.20;;
15295;SDS011;7749;49.964;7.890;2023-01-29T13:11:07;11.25;;;8.73;;
15295;SDS011;7749;49.964;7.890;2023-01-29T13:13:43;7.95;;;7.15;;
15295;SDS011;7749;49.964;7.890;2023-01-29T13:16:21;5.53;;;5.13;;
15295;SDS011;7749;49.964;7.890;2023-01-29T13:19:05;4.90;;;4.50;;
15295;SDS011;7749;49.964;7.890;2023-01-29T13:21:44;5.80;;;5.13;;
15295;SDS011;7749;49.964;7.890;2023-01-29T13:24:15;6.00;;;5.30;;
15295;SDS011;7749;49.964;7.890;2023-01-29T13:26:46;4.33;;;4.03;;
15295;SDS011;7749;49.964;7.890;2023-01-29T13:29:28;4.83;;;4.43;;
15295;SDS011;7749;49.964;7.890;2023-01-29T13:32:00;5.47;;;4.97;;
15295;SDS011;7749;49.964;7.890;2023-01-29T13:34:34;5.13;;;4.40;;
15295;SDS011;7749;49.964;7.890;2023-01-29T13:37:10;4.88;;;4.43;;
15295;SDS011;7749;49.964;7.890;2023-01-29T13:39:45;6.70;;;4.90;;
15295;SDS011;7749;49.964;7.890;2023-01-29T13:44:53;4.85;;;4.45;;
15295;SDS011;7749;49.964;7.890;2023-01-29T13:50:00;10.68;;;5.32;;
15295;SDS011;7749;49.964;7.890;2023-01-29T13:52:37;4.65;;;4.25;;
15295;SDS011;7749;49.964;7.890;2023-01-29T14:02:47;5.20;;;4.70;;
15295;SDS011;7749;49.964;7.890;2023-01-29T14:10:43;6.22;;;4.68;;
15295;SDS011;7749;49.964;7.890;2023-01-29T14:15:45;8.85;;;4.50;;
15295;SDS011;7749;49.964;7.890;2023-01-29T14:18:36;5.60;;;5.10;;
15295;SDS011;7749;49.964;7.890;2023-01-29T14:23:44;5.07;;;4.68;;
15295;SDS011;7749;49.964;7.890;2023-01-29T14:26:31;5.10;;;4.70;;
15295;SDS011;7749;49.964;7.890;2023-01-29T14:34:40;5.70;;;5.07;;
15295;SDS011;7749;49.964;7.890;2023-01-29T14:39:46;5.17;;;4.77;;
15295;SDS011;7749;49.964;7.890;2023-01-29T14:53:00;9.03;;;8.13;;
15295;SDS011;7749;49.964;7.890;2023-01-29T14:55:51;8.93;;;8.00;;
15295;SDS011;7749;49.964;7.890;2023-01-29T14:58:29;8.10;;;7.33;;
15295;SDS011;7749;49.964;7.890;2023-01-29T15:01:04;8.80;;;7.90;;
15295;SDS011;7749;49.964;7.890;2023-01-29T15:06:19;10.10;;;9.10;;
15295;SDS011;7749;49.964;7.890;2023-01-29T15:09:14;12.83;;;9.40;;
15295;SDS011;7749;49.964;7.890;2023-01-29T15:17:54;18.47;;;10.87;;
15295;SDS011;7749;49.964;7.890;2023-01-29T15:20:34;12.13;;;10.97;;
15295;SDS011;7749;49.964;7.890;2023-01-29T15:23:03;10.53;;;9.43;;
15295;SDS011;7749;49.964;7.890;2023-01-29T15:26:00;10.67;;;8.93;;
15295;SDS011;7749;49.964;7.890;2023-01-29T15:28:31;12.57;;;9.07;;
15295;SDS011;7749;49.964;7.890;2023-01-29T15:31:01;15.80;;;9.10;;
15295;SDS011;7749;49.964;7.890;2023-01-29T15:33:33;10.23;;;8.80;;
15295;SDS011;7749;49.964;7.890;2023-01-29T15:36:04;9.23;;;8.43;;
15295;SDS011;7749;49.964;7.890;2023-01-29T15:38:34;9.87;;;8.17;;
15295;SDS011;7749;49.964;7.890;2023-01-29T15:41:12;9.23;;;7.70;;
15295;SDS011;7749;49.964;7.890;2023-01-29T15:43:46;9.47;;;8.07;;
15295;SDS011;7749;49.964;7.890;2023-01-29T15:49:06;7.40;;;6.70;;
15295;SDS011;7749;49.964;7.890;2023-01-29T15:51:36;7.33;;;6.63;;
15295;SDS011;7749;49.964;7.890;2023-01-29T15:54:05;7.20;;;6.60;;
15295;SDS011;7749;49.964;7.890;2023-01-29T15:56:42;8.13;;;7.20;;
15295;SDS011;7749;49.964;7.890;2023-01-29T15:59:17;7.87;;;7.17;;
15295;SDS011;7749;49.964;7.890;2023-01-29T16:01:51;8.27;;;7.50;;
15295;SDS011;7749;49.964;7.890;2023-01-29T16:04:21;8.23;;;7.43;;
15295;SDS011;7749;49.964;7.890;2023-01-29T16:06:53;8.13;;;7.30;;
15295;SDS011;7749;49.964;7.890;2023-01-29T16:09:22;8.53;;;7.63;;
15295;SDS011;7749;49.964;7.890;2023-01-29T16:11:52;9.33;;;8.37;;
15295;SDS011;7749;49.964;7.890;2023-01-29T16:14:23;9.00;;;8.07;;
15295;SDS011;7749;49.964;7.890;2023-01-29T16:16:52;9.67;;;8.77;;
15295;SDS011;7749;49.964;7.890;2023-01-29T16:19:21;10.47;;;8.87;;
15295;SDS011;7749;49.964;7.890;2023-01-29T16:21:55;9.57;;;8.57;;
15295;SDS011;7749;49.964;7.890;2023-01-29T16:24:29;9.13;;;8.00;;
15295;SDS011;7749;49.964;7.890;2023-01-29T16:27:11;16.30;;;14.57;;
15295;SDS011;7749;49.964;7.890;2023-01-29T16:29:40;10.00;;;8.90;;
15295;SDS011;7749;49.964;7.890;2023-01-29T16:32:08;9.93;;;8.70;;
15295;SDS011;7749;49.964;7.890;2023-01-29T16:34:40;10.27;;;9.27;;
15295;SDS011;7749;49.964;7.890;2023-01-29T16:37:22;9.60;;;8.73;;
15295;SDS011;7749;49.964;7.890;2023-01-29T16:39:54;13.53;;;10.30;;
15295;SDS011;7749;49.964;7.890;2023-01-29T16:42:27;9.47;;;8.50;;
15295;SDS011;7749;49.964;7.890;2023-01-29T16:47:37;11.47;;;9.47;;
15295;SDS011;7749;49.964;7.890;2023-01-29T16:53:19;10.13;;;9.23;;
15295;SDS011;7749;49.964;7.890;2023-01-29T16:55:49;12.87;;;11.13;;
15295;SDS011;7749;49.964;7.890;2023-01-29T16:58:19;10.70;;;9.70;;
15295;SDS011;7749;49.964;7.890;2023-01-29T17:01:04;10.80;;;9.80;;
15295;SDS011;7749;49.964;7.890;2023-01-29T17:03:35;11.57;;;10.47;;
15295;SDS011;7749;49.964;7.890;2023-01-29T17:06:07;17.50;;;14.93;;
15295;SDS011;7749;49.964;7.890;2023-01-29T17:08:40;19.77;;;17.73;;
15295;SDS011;7749;49.964;7.890;2023-01-29T17:11:09;13.13;;;11.83;;
15295;SDS011;7749;49.964;7.890;2023-01-29T17:13:48;12.53;;;11.27;;
15295;SDS011;7749;49.964;7.890;2023-01-29T17:16:21;13.23;;;11.83;;
15295;SDS011;7749;49.964;7.890;2023-01-29T17:18:49;10.73;;;9.80;;
15295;SDS011;7749;49.964;7.890;2023-01-29T17:21:17;13.07;;;11.77;;
15295;SDS011;7749;49.964;7.890;2023-01-29T17:23:45;14.90;;;13.53;;
15295;SDS011;7749;49.964;7.890;2023-01-29T17:26:12;15.10;;;13.70;;
15295;SDS011;7749;49.964;7.890;2023-01-29T17:28:41;23.63;;;21.33;;
15295;SDS011;7749;49.964;7.890;2023-01-29T17:31:12;34.77;;;31.13;;
15295;SDS011;7749;49.964;7.890;2023-01-29T17:33:41;24.17;;;21.80;;
15295;SDS011;7749;49.964;7.890;2023-01-29T17:36:11;20.40;;;18.50;;
15295;SDS011;7749;49.964;7.890;2023-01-29T17:38:45;21.97;;;19.70;;
15295;SDS011;7749;49.964;7.890;2023-01-29T17:41:23;21.33;;;19.13;;
15295;SDS011;7749;49.964;7.890;2023-01-29T17:43:54;16.60;;;15.10;;
15295;SDS011;7749;49.964;7.890;2023-01-29T17:46:22;16.13;;;14.53;;
15295;SDS011;7749;49.964;7.890;2023-01-29T17:48:49;15.77;;;14.30;;
15295;SDS011;7749;49.964;7.890;2023-01-29T17:51:18;17.00;;;15.30;;
15295;SDS011;7749;49.964;7.890;2023-01-29T17:53:46;16.67;;;15.13;;
15295;SDS011;7749;49.964;7.890;2023-01-29T17:58:45;15.03;;;13.67;;
15295;SDS011;7749;49.964;7.890;2023-01-29T18:01:19;13.87;;;12.67;;
15295;SDS011;7749;49.964;7.890;2023-01-29T18:03:50;13.03;;;11.83;;
15295;SDS011;7749;49.964;7.890;2023-01-29T18:06:26;13.40;;;12.00;;
15295;SDS011;7749;49.964;7.890;2023-01-29T18:08:56;13.80;;;12.50;;
15295;SDS011;7749;49.964;7.890;2023-01-29T18:11:24;13.00;;;11.80;;
15295;SDS011;7749;49.964;7.890;2023-01-29T18:13:53;13.57;;;12.27;;
15295;SDS011;7749;49.964;7.890;2023-01-29T18:16:22;13.83;;;12.40;;
15295;SDS011;7749;49.964;7.890;2023-01-29T18:18:51;14.57;;;13.20;;
15295;SDS011;7749;49.964;7.890;2023-01-29T18:21:19;15.63;;;14.07;;
15295;SDS011;7749;49.964;7.890;2023-01-29T18:23:47;15.57;;;14.10;;
15295;SDS011;7749;49.964;7.890;2023-01-29T18:26:16;15.83;;;14.37;;
15295;SDS011;7749;49.964;7.890;2023-01-29T18:28:44;16.33;;;14.83;;
15295;SDS011;7749;49.964;7.890;2023-01-29T18:31:11;17.07;;;15.47;;
15295;SDS011;7749;49.964;7.890;2023-01-29T18:33:40;17.33;;;15.53;;
15295;SDS011;7749;49.964;7.890;2023-01-29T18:36:11;15.57;;;13.93;;
15295;SDS011;7749;49.964;7.890;2023-01-29T18:38:42;15.37;;;13.93;;
15295;SDS011;7749;49.964;7.890;2023-01-29T18:41:10;14.87;;;13.47;;
15295;SDS011;7749;49.964;7.890;2023-01-29T18:43:38;15.23;;;13.83;;
15295;SDS011;7749;49.964;7.890;2023-01-29T18:46:12;15.17;;;13.77;;
15295;SDS011;7749;49.964;7.890;2023-01-29T18:48:40;18.30;;;16.53;;
15295;SDS011;7749;49.964;7.890;2023-01-29T18:51:09;19.47;;;17.67;;